createdAt,value
2018-07-10T00:01:03.679Z,1.30
2018-07-10T00:03:55.514Z,1.33
2018-07-10T00:06:40.907Z,1.10
2018-07-10T00:10:26.286Z,1.10
2018-07-10T00:12:53.997Z,0.80
2018-07-10T00:15:21.701Z,1.20
2018-07-10T00:17:50.033Z,1.00
2018-07-10T00:20:17.738Z,1.10
2018-07-10T00:22:45.437Z,0.60
2018-07-10T00:25:13.191Z,1.10
2018-07-10T00:27:40.940Z,0.80
2018-07-10T00:30:08.663Z,0.80
2018-07-10T00:32:36.492Z,0.70
2018-07-10T00:35:04.246Z,0.70
2018-07-10T00:37:31.960Z,1.00
2018-07-10T00:39:59.726Z,0.90
2018-07-10T00:42:27.481Z,0.90
2018-07-10T00:44:55.224Z,0.93
2018-07-10T00:47:22.997Z,0.93
2018-07-10T00:49:51.092Z,0.80
2018-07-10T00:52:28.497Z,0.97
2018-07-10T00:54:56.265Z,1.10
2018-07-10T00:57:24.033Z,0.93
2018-07-10T00:59:52.866Z,1.10
2018-07-10T01:02:20.646Z,0.97
2018-07-10T01:04:48.381Z,1.20
2018-07-10T01:07:16.122Z,1.23
2018-07-10T01:09:43.846Z,1.00
2018-07-10T01:12:12.322Z,1.00
2018-07-10T01:14:40.039Z,1.00
2018-07-10T01:17:07.817Z,0.70
2018-07-10T01:19:35.567Z,0.80
2018-07-10T01:22:03.314Z,1.07
2018-07-10T01:24:31.667Z,1.00
2018-07-10T01:26:59.390Z,1.00
2018-07-10T01:29:33.011Z,0.90
2018-07-10T01:32:00.765Z,0.80
2018-07-10T01:34:28.541Z,0.97
2018-07-10T01:36:56.270Z,0.80
2018-07-10T01:39:24.008Z,1.13
2018-07-10T01:41:51.749Z,0.90
2018-07-10T01:44:19.453Z,1.00
2018-07-10T01:46:47.172Z,1.00
2018-07-10T01:49:14.894Z,1.17
2018-07-10T01:51:42.640Z,1.10
2018-07-10T01:54:10.370Z,1.00
2018-07-10T01:56:38.195Z,1.00
2018-07-10T01:59:06.115Z,1.17
2018-07-10T02:01:33.839Z,1.00
2018-07-10T02:04:01.592Z,1.00
2018-07-10T02:06:29.666Z,1.10
2018-07-10T02:08:58.195Z,0.77
2018-07-10T02:11:26.166Z,0.77
2018-07-10T02:13:54.043Z,0.97
2018-07-10T02:16:21.901Z,1.00
2018-07-10T02:18:50.007Z,1.00
2018-07-10T02:21:18.056Z,1.00
2018-07-10T02:23:46.238Z,0.93
2018-07-10T02:26:23.063Z,1.13
2018-07-10T02:28:51.874Z,1.10
2018-07-10T02:31:20.303Z,0.93
2018-07-10T02:33:48.389Z,1.03
2018-07-10T02:36:16.620Z,0.97
2018-07-10T02:38:49.170Z,1.00
2018-07-10T02:41:18.913Z,1.33
2018-07-10T02:43:53.870Z,1.00
2018-07-10T02:46:21.604Z,1.30
2018-07-10T02:48:50.126Z,0.93
2018-07-10T02:51:18.272Z,1.10
2018-07-10T02:53:46.271Z,1.20
2018-07-10T02:56:15.583Z,1.27
2018-07-10T02:58:43.459Z,1.10
2018-07-10T03:01:11.211Z,1.20
2018-07-10T03:03:42.053Z,1.23
2018-07-10T03:06:09.994Z,1.20
2018-07-10T03:08:37.747Z,1.30
2018-07-10T03:11:05.870Z,1.10
2018-07-10T03:13:34.326Z,1.17
2018-07-10T03:16:02.253Z,1.47
2018-07-10T03:18:31.435Z,1.20
2018-07-10T03:20:59.195Z,1.07
2018-07-10T03:23:26.933Z,1.17
2018-07-10T03:25:54.687Z,1.20
2018-07-10T03:28:22.457Z,1.13
2018-07-10T03:30:50.186Z,1.10
2018-07-10T03:33:17.930Z,1.30
2018-07-10T03:35:45.710Z,1.20
2018-07-10T03:38:13.966Z,1.20
2018-07-10T03:40:41.711Z,1.17
2018-07-10T03:43:09.457Z,1.20
2018-07-10T03:45:37.209Z,1.20
2018-07-10T03:48:05.035Z,1.13
2018-07-10T03:50:33.303Z,0.80
2018-07-10T03:53:01.810Z,1.23
2018-07-10T03:55:31.525Z,1.13
2018-07-10T03:57:59.322Z,1.20
2018-07-10T04:00:28.269Z,1.70
2018-07-10T04:02:56.014Z,1.10
2018-07-10T04:05:23.784Z,1.20
2018-07-10T04:07:55.417Z,1.40
2018-07-10T04:10:27.097Z,1.30
2018-07-10T04:12:56.148Z,1.37
2018-07-10T04:15:23.932Z,1.20
2018-07-10T04:18:02.392Z,1.50
2018-07-10T04:20:44.553Z,1.30
2018-07-10T04:23:12.898Z,1.40
2018-07-10T04:25:40.627Z,1.63
2018-07-10T04:28:15.751Z,1.47
2018-07-10T04:31:00.768Z,1.60
2018-07-10T04:33:29.722Z,1.53
2018-07-10T04:35:57.467Z,1.40
2018-07-10T04:38:26.697Z,1.47
2018-07-10T04:41:05.138Z,1.20
2018-07-10T04:43:33.130Z,1.37
2018-07-10T04:46:00.860Z,1.13
2018-07-10T04:48:34.155Z,1.30
2018-07-10T04:51:18.744Z,1.13
2018-07-10T04:54:09.871Z,1.40
2018-07-10T04:56:44.771Z,1.20
2018-07-10T04:59:12.835Z,1.40
2018-07-10T05:01:40.592Z,1.37
2018-07-10T05:04:09.377Z,1.50
2018-07-10T05:06:37.198Z,1.50
2018-07-10T05:09:05.712Z,1.30
2018-07-10T05:11:37.293Z,1.80
2018-07-10T05:14:05.480Z,1.30
2018-07-10T05:16:34.250Z,1.73
2018-07-10T05:19:01.962Z,1.60
2018-07-10T05:21:29.699Z,1.73
2018-07-10T05:23:57.672Z,1.40
2018-07-10T05:26:26.319Z,1.50
2018-07-10T05:28:54.086Z,1.60
2018-07-10T05:31:22.386Z,1.57
2018-07-10T05:33:51.377Z,1.40
2018-07-10T05:36:21.516Z,1.80
2018-07-10T05:38:54.486Z,1.50
2018-07-10T05:41:22.287Z,1.60
2018-07-10T05:43:52.688Z,1.53
2018-07-10T05:46:23.200Z,1.43
2018-07-10T05:48:59.933Z,1.53
2018-07-10T05:51:30.975Z,1.20
2018-07-10T05:54:02.677Z,1.60
2018-07-10T05:56:30.422Z,1.30
2018-07-10T05:58:59.990Z,1.23
2018-07-10T06:01:27.738Z,1.80
2018-07-10T06:03:55.779Z,1.63
2018-07-10T06:06:23.529Z,1.37
2018-07-10T06:08:51.718Z,1.60
2018-07-10T06:11:19.619Z,1.53
2018-07-10T06:13:47.622Z,1.60
2018-07-10T06:16:15.638Z,1.83
2018-07-10T06:18:43.400Z,1.83
2018-07-10T06:21:11.215Z,1.60
2018-07-10T06:23:41.840Z,1.83
2018-07-10T06:26:10.131Z,1.77
2018-07-10T06:28:45.075Z,1.70
2018-07-10T06:31:16.178Z,1.40
2018-07-10T06:33:55.372Z,1.77
2018-07-10T06:36:30.579Z,1.70
2018-07-10T06:39:14.260Z,1.80
2018-07-10T06:44:14.962Z,1.63
2018-07-10T06:46:43.995Z,1.77
2018-07-10T06:49:21.384Z,1.53
2018-07-10T06:52:07.056Z,1.93
2018-07-10T06:54:50.352Z,1.47
2018-07-10T06:57:22.591Z,1.80
2018-07-10T06:59:50.411Z,1.77
2018-07-10T07:02:18.943Z,2.03
2018-07-10T07:04:46.689Z,1.67
2018-07-10T07:07:14.721Z,1.60
2018-07-10T07:09:42.482Z,1.43
2018-07-10T07:12:10.202Z,1.67
2018-07-10T07:14:37.960Z,1.80
2018-07-10T07:17:05.705Z,1.73
2018-07-10T07:19:33.437Z,1.80
2018-07-10T07:22:01.163Z,1.70
2018-07-10T07:24:29.027Z,1.90
2018-07-10T07:26:56.738Z,1.80
2018-07-10T07:29:24.903Z,1.73
2018-07-10T07:31:52.778Z,2.23
2018-07-10T07:34:20.524Z,2.10
2018-07-10T07:36:48.326Z,1.73
2018-07-10T07:39:16.027Z,1.80
2018-07-10T07:41:43.802Z,2.17
2018-07-10T07:44:12.549Z,1.77
2018-07-10T07:46:40.399Z,1.93
2018-07-10T07:49:08.154Z,1.70
2018-07-10T07:51:36.209Z,1.70
2018-07-10T07:54:04.491Z,1.57
2018-07-10T07:56:32.267Z,2.10
2018-07-10T07:58:59.984Z,2.60
2018-07-10T08:01:27.773Z,1.80
2018-07-10T08:03:55.507Z,2.23
2018-07-10T08:06:23.307Z,1.90
2018-07-10T08:08:51.082Z,2.03
2018-07-10T08:11:18.830Z,2.20
2018-07-10T08:13:47.076Z,2.00
2018-07-10T08:16:14.852Z,2.77
2018-07-10T08:18:42.563Z,2.00
2018-07-10T08:21:10.297Z,2.00
2018-07-10T08:23:38.152Z,2.27
2018-07-10T08:26:05.908Z,2.13
2018-07-10T08:28:33.669Z,2.50
2018-07-10T08:31:02.534Z,2.37
2018-07-10T08:33:30.843Z,2.50
2018-07-10T08:35:58.682Z,2.33
2018-07-10T08:38:37.738Z,2.43
2018-07-10T08:41:06.825Z,2.50
2018-07-10T08:43:34.560Z,2.03
2018-07-10T08:46:02.350Z,2.17
2018-07-10T08:48:30.780Z,2.20
2018-07-10T08:50:58.573Z,2.27
2018-07-10T08:53:27.107Z,2.57
2018-07-10T08:55:54.906Z,2.10
2018-07-10T08:58:23.219Z,2.17
2018-07-10T09:00:50.988Z,3.00
2018-07-10T09:03:18.834Z,2.13
2018-07-10T09:05:46.592Z,2.63
2018-07-10T09:08:14.399Z,2.73
2018-07-10T09:10:42.170Z,2.33
2018-07-10T09:13:09.918Z,2.97
2018-07-10T09:15:37.722Z,2.13
2018-07-10T09:18:05.612Z,2.07
2018-07-10T09:20:39.786Z,2.63
2018-07-10T09:23:08.210Z,2.60
2018-07-10T09:25:36.654Z,2.50
2018-07-10T09:28:04.430Z,2.70
2018-07-10T09:30:32.194Z,2.20
2018-07-10T09:32:59.939Z,2.60
2018-07-10T09:35:27.680Z,2.10
2018-07-10T09:37:55.443Z,2.17
2018-07-10T09:40:23.348Z,2.10
2018-07-10T09:42:58.275Z,2.07
2018-07-10T09:45:30.370Z,1.90
2018-07-10T09:47:58.171Z,2.80
2018-07-10T09:50:26.088Z,2.50
2018-07-10T09:52:54.646Z,2.83
2018-07-10T09:55:22.394Z,2.77
2018-07-10T09:57:50.620Z,2.90
2018-07-10T10:00:24.241Z,3.00
2018-07-10T10:02:52.044Z,2.97
2018-07-10T10:05:19.771Z,2.70
2018-07-10T10:07:47.518Z,1.83
2018-07-10T10:10:15.459Z,2.63
2018-07-10T10:12:43.227Z,2.40
2018-07-10T10:15:11.703Z,2.33
2018-07-10T10:17:39.481Z,2.70
2018-07-10T10:20:07.261Z,2.17
2018-07-10T10:22:36.297Z,1.97
2018-07-10T10:25:04.205Z,2.20
2018-07-10T10:27:31.933Z,2.57
2018-07-10T10:30:00.383Z,2.20
2018-07-10T10:32:28.351Z,2.60
2018-07-10T10:34:56.469Z,2.70
2018-07-10T10:37:24.232Z,2.50
2018-07-10T10:39:53.983Z,2.30
2018-07-10T10:42:21.706Z,2.50
2018-07-10T10:44:52.291Z,2.53
2018-07-10T10:47:21.577Z,2.70
2018-07-10T10:49:49.869Z,2.73
2018-07-10T10:52:17.953Z,2.70
2018-07-10T10:54:45.739Z,2.73
2018-07-10T10:57:14.206Z,2.50
2018-07-10T10:59:42.552Z,2.33
2018-07-10T11:02:10.305Z,3.00
2018-07-10T11:04:38.947Z,3.20
2018-07-10T11:07:06.681Z,3.10
2018-07-10T11:09:34.413Z,3.63
2018-07-10T11:12:02.168Z,2.83
2018-07-10T11:14:29.888Z,3.63
2018-07-10T11:16:57.646Z,3.50
2018-07-10T11:19:35.338Z,3.77
2018-07-10T11:22:13.271Z,3.33
2018-07-10T11:25:14.298Z,3.80
2018-07-10T11:28:01.241Z,3.87
2018-07-10T11:30:29.382Z,4.10
2018-07-10T11:32:57.085Z,4.07
2018-07-10T11:35:25.054Z,4.30
2018-07-10T11:37:52.986Z,4.00
2018-07-10T11:40:20.935Z,4.80
2018-07-10T11:42:48.716Z,4.37
2018-07-10T11:45:16.519Z,4.27
2018-07-10T11:47:44.217Z,4.70
2018-07-10T11:50:12.022Z,5.10
2018-07-10T11:52:39.845Z,4.80
2018-07-10T11:55:07.921Z,4.63
2018-07-10T11:57:35.752Z,5.03
2018-07-10T12:00:03.652Z,4.80
2018-07-10T12:02:45.837Z,5.30
2018-07-10T12:05:16.644Z,4.37
2018-07-10T12:07:53.791Z,4.60
2018-07-10T12:10:26.323Z,4.80
2018-07-10T12:12:54.279Z,4.17
2018-07-10T12:15:23.536Z,4.27
2018-07-10T12:17:55.796Z,4.20
2018-07-10T12:20:28.812Z,5.13
2018-07-10T12:22:56.971Z,5.07
2018-07-10T12:25:25.642Z,4.73
2018-07-10T12:27:53.664Z,5.13
2018-07-10T12:30:21.467Z,4.80
2018-07-10T12:32:49.415Z,5.53
2018-07-10T12:35:17.230Z,5.07
2018-07-10T12:37:45.111Z,5.60
2018-07-10T12:40:13.026Z,5.13
2018-07-10T12:42:40.965Z,5.83
2018-07-10T12:45:09.796Z,5.17
2018-07-10T12:47:37.601Z,5.00
2018-07-10T12:50:05.698Z,5.37
2018-07-10T12:52:33.464Z,6.20
2018-07-10T12:55:01.478Z,6.00
2018-07-10T12:57:38.606Z,5.90
2018-07-10T13:00:06.632Z,5.90
2018-07-10T13:02:37.575Z,5.63
2018-07-10T13:05:09.768Z,5.73
2018-07-10T13:07:38.385Z,5.47
2018-07-10T13:10:07.867Z,5.63
2018-07-10T13:12:36.242Z,6.63
2018-07-10T13:15:04.187Z,6.10
2018-07-10T13:17:32.850Z,6.03
2018-07-10T13:20:03.222Z,6.17
2018-07-10T13:22:30.976Z,6.10
2018-07-10T13:24:59.143Z,6.17
2018-07-10T13:27:28.194Z,6.00
2018-07-10T13:29:55.986Z,6.17
2018-07-10T13:32:23.755Z,6.70
2018-07-10T13:34:51.487Z,6.33
2018-07-10T13:37:23.665Z,5.90
2018-07-10T13:39:51.501Z,6.17
2018-07-10T13:42:24.307Z,6.60
2018-07-10T13:44:52.101Z,5.73
2018-07-10T13:47:20.657Z,5.67
2018-07-10T13:49:48.481Z,6.73
2018-07-10T13:52:16.195Z,6.10
2018-07-10T13:54:43.957Z,6.33
2018-07-10T13:57:11.695Z,6.70
2018-07-10T13:59:39.490Z,6.20
2018-07-10T14:02:07.295Z,6.53
2018-07-10T14:04:35.210Z,6.07
2018-07-10T14:07:02.943Z,5.57
2018-07-10T14:09:30.655Z,5.80
2018-07-10T14:11:58.379Z,5.43
2018-07-10T14:14:26.377Z,6.77
2018-07-10T14:16:54.148Z,5.80
2018-07-10T14:19:21.899Z,5.33
2018-07-10T14:21:49.906Z,5.73
2018-07-10T14:24:17.662Z,5.03
2018-07-10T14:26:45.411Z,4.30
2018-07-10T14:29:13.148Z,4.43
2018-07-10T14:31:40.898Z,4.20
2018-07-10T14:34:08.655Z,3.80
2018-07-10T14:36:36.414Z,3.50
2018-07-10T14:39:04.163Z,3.67
2018-07-10T14:41:31.923Z,3.20
2018-07-10T14:44:00.192Z,3.93
2018-07-10T14:46:28.211Z,4.00
2018-07-10T14:48:57.925Z,3.77
2018-07-10T14:52:00.574Z,4.00
2018-07-10T14:54:28.369Z,4.20
2018-07-10T14:56:56.105Z,4.30
2018-07-10T14:59:23.861Z,3.60
2018-07-10T15:01:51.923Z,3.20
2018-07-10T15:04:19.670Z,3.60
2018-07-10T15:06:47.444Z,3.27
2018-07-10T15:09:15.508Z,3.77
2018-07-10T15:11:43.234Z,3.60
2018-07-10T15:14:11.631Z,3.07
2018-07-10T15:16:47.014Z,3.27
2018-07-10T15:19:15.357Z,3.03
2018-07-10T15:21:43.286Z,3.40
2018-07-10T15:24:11.365Z,3.10
2018-07-10T15:26:39.135Z,3.30
2018-07-10T15:29:07.038Z,3.30
2018-07-10T15:31:34.808Z,3.67
2018-07-10T15:34:02.643Z,3.87
2018-07-10T15:36:30.530Z,3.60
2018-07-10T15:38:58.404Z,3.67
2018-07-10T15:41:28.732Z,3.40
2018-07-10T15:43:56.584Z,4.17
2018-07-10T15:46:24.423Z,2.73
2018-07-10T15:48:52.573Z,3.10
2018-07-10T15:51:20.371Z,3.73
2018-07-10T15:53:48.222Z,3.07
2018-07-10T15:56:16.009Z,3.03
2018-07-10T15:58:43.839Z,3.67
2018-07-10T16:01:11.635Z,3.30
2018-07-10T16:03:39.449Z,2.80
2018-07-10T16:06:07.693Z,3.03
2018-07-10T16:08:37.814Z,3.10
2018-07-10T16:11:05.711Z,2.70
2018-07-10T16:13:48.402Z,3.27
2018-07-10T16:16:19.024Z,2.57
2018-07-10T16:18:53.179Z,2.70
2018-07-10T16:21:20.953Z,3.20
2018-07-10T16:23:52.178Z,2.77
2018-07-10T16:26:22.340Z,3.33
2018-07-10T16:28:51.329Z,3.27
2018-07-10T16:31:20.361Z,3.63
2018-07-10T16:33:48.303Z,3.00
2018-07-10T16:36:16.990Z,2.97
2018-07-10T16:38:45.007Z,2.60
2018-07-10T16:41:20.759Z,2.70
2018-07-10T16:43:49.353Z,2.70
2018-07-10T16:46:26.877Z,2.80
2018-07-10T16:49:10.816Z,2.83
2018-07-10T16:51:47.898Z,3.00
2018-07-10T16:54:15.865Z,2.70
2018-07-10T16:56:44.652Z,2.27
2018-07-10T16:59:12.519Z,2.83
2018-07-10T17:01:40.720Z,2.50
2018-07-10T17:04:08.495Z,2.57
2018-07-10T17:06:37.205Z,2.10
2018-07-10T17:09:05.342Z,2.40
2018-07-10T17:11:33.858Z,2.10
2018-07-10T17:14:01.936Z,2.20
2018-07-10T17:16:30.260Z,2.12
2018-07-10T17:18:58.240Z,2.02
2018-07-10T17:21:27.970Z,1.85
2018-07-10T17:23:58.866Z,1.90
2018-07-10T17:26:26.902Z,2.25
2018-07-10T17:28:54.738Z,2.22
2018-07-10T17:31:22.526Z,2.17
2018-07-10T17:33:50.634Z,1.52
2018-07-10T17:36:18.528Z,1.70
2018-07-10T17:38:47.125Z,1.92
2018-07-10T17:41:14.903Z,1.65
2018-07-10T17:43:42.683Z,1.70
2018-07-10T17:46:10.499Z,1.98
2018-07-10T17:48:38.259Z,1.67
2018-07-10T17:51:06.029Z,1.90
2018-07-10T17:53:33.805Z,1.92
2018-07-10T17:56:01.549Z,1.60
2018-07-10T17:58:29.818Z,1.90
2018-07-10T18:00:57.610Z,2.33
2018-07-10T18:03:25.403Z,1.82
2018-07-10T18:05:53.127Z,2.50
2018-07-10T18:08:20.927Z,1.80
2018-07-10T18:10:48.756Z,1.98
2018-07-10T18:13:16.625Z,2.55
2018-07-10T18:15:44.433Z,1.87
2018-07-10T18:18:13.008Z,2.20
2018-07-10T18:20:40.783Z,2.10
2018-07-10T18:23:08.630Z,2.05
2018-07-10T18:25:36.427Z,2.10
2018-07-10T18:28:04.251Z,3.25
2018-07-10T18:30:32.077Z,2.85
2018-07-10T18:32:59.799Z,2.83
2018-07-10T18:35:27.604Z,4.67
2018-07-10T18:37:55.483Z,3.52
2018-07-10T18:40:23.339Z,3.47
2018-07-10T18:42:51.205Z,3.35
2018-07-10T18:45:19.180Z,4.00
2018-07-10T18:47:47.000Z,7.67
2018-07-10T18:50:14.872Z,19.40
2018-07-10T18:52:42.694Z,15.60
2018-07-10T18:55:10.498Z,7.72
2018-07-10T18:57:49.871Z,7.67
2018-07-10T19:00:25.821Z,5.35
2018-07-10T19:03:08.514Z,6.90
2018-07-10T19:05:47.549Z,5.05
2018-07-10T19:08:15.442Z,8.90
2018-07-10T19:10:44.587Z,10.08
2018-07-10T19:13:13.344Z,7.60
2018-07-10T19:15:41.816Z,4.10
2018-07-10T19:18:09.655Z,2.20
2018-07-10T19:20:38.480Z,2.20
2018-07-10T19:23:13.753Z,2.63
2018-07-10T19:25:42.082Z,2.50
2018-07-10T19:28:11.545Z,2.10
2018-07-10T19:30:51.859Z,2.30
2018-07-10T19:33:19.727Z,2.10
2018-07-10T19:35:48.797Z,2.40
2018-07-10T19:38:16.789Z,2.00
2018-07-10T19:40:44.648Z,2.00
2018-07-10T19:43:12.455Z,2.20
2018-07-10T19:45:40.316Z,2.27
2018-07-10T19:48:08.335Z,1.90
2018-07-10T19:50:39.360Z,2.00
2018-07-10T19:53:07.273Z,2.00
2018-07-10T19:55:38.302Z,2.07
2018-07-10T19:58:31.238Z,1.80
2018-07-10T20:01:57.981Z,2.40
2018-07-10T20:04:39.915Z,1.87
2018-07-10T20:07:20.561Z,2.00
2018-07-10T20:09:55.713Z,1.80
2018-07-10T20:12:34.098Z,1.80
2018-07-10T20:15:13.535Z,1.70
2018-07-10T20:17:57.280Z,1.93
2018-07-10T20:20:27.307Z,2.00
2018-07-10T20:24:13.227Z,1.97
2018-07-10T20:26:54.806Z,1.90
2018-07-10T20:29:39.549Z,2.17
2018-07-10T20:32:07.354Z,1.80
2018-07-10T20:35:01.611Z,1.67
2018-07-10T20:37:30.342Z,1.97
2018-07-10T20:39:58.764Z,1.90
2018-07-10T20:42:39.287Z,1.77
2018-07-10T20:45:08.002Z,1.77
2018-07-10T20:47:48.838Z,1.67
2018-07-10T20:50:26.230Z,1.93
2018-07-10T20:53:00.963Z,1.87
2018-07-10T20:55:44.722Z,2.67
2018-07-10T20:58:16.362Z,2.10
2018-07-10T21:01:06.699Z,1.90
2018-07-10T21:03:48.268Z,1.87
2018-07-10T21:06:23.720Z,2.20
2018-07-10T21:09:05.403Z,1.93
2018-07-10T21:12:11.564Z,2.17
2018-07-10T21:14:50.379Z,1.77
2018-07-10T21:17:18.349Z,1.80
2018-07-10T21:20:13.271Z,2.00
2018-07-10T21:22:55.362Z,1.90
2018-07-10T21:25:34.139Z,1.77
2018-07-10T21:28:44.884Z,1.80
2018-07-10T21:31:21.891Z,1.70
2018-07-10T21:34:13.929Z,1.73
2018-07-10T21:37:01.926Z,1.90
2018-07-10T21:40:45.902Z,1.70
2018-07-10T21:43:20.388Z,1.97
2018-07-10T21:48:04.845Z,1.70
2018-07-10T21:50:41.990Z,1.83
2018-07-10T21:53:09.753Z,2.00
2018-07-10T21:55:37.749Z,1.90
2018-07-10T21:58:05.856Z,1.80
2018-07-10T22:02:48.835Z,1.60
2018-07-10T22:05:16.652Z,1.73
2018-07-10T22:07:44.643Z,1.50
2018-07-10T22:10:12.458Z,1.47
2018-07-10T22:12:45.721Z,1.93
2018-07-10T22:15:13.519Z,1.63
2018-07-10T22:17:42.948Z,1.60
2018-07-10T22:20:10.973Z,2.03
2018-07-10T22:22:39.437Z,1.63
2018-07-10T22:25:08.229Z,1.80
2018-07-10T22:27:39.177Z,1.97
2018-07-10T22:30:14.346Z,1.63
2018-07-10T22:32:47.781Z,2.27
2018-07-10T22:35:16.104Z,1.83
2018-07-10T22:37:44.397Z,1.90
2018-07-10T22:40:14.647Z,2.17
2018-07-10T22:42:42.380Z,2.10
2018-07-10T22:45:10.263Z,2.13
2018-07-10T22:47:40.755Z,1.53
2018-07-10T22:50:14.775Z,1.90
2018-07-10T22:52:45.467Z,2.33
2018-07-10T22:55:16.225Z,1.93
2018-07-10T22:57:44.062Z,1.77
2018-07-10T23:00:30.306Z,2.03
2018-07-10T23:02:58.600Z,1.83
2018-07-10T23:05:26.810Z,1.90
2018-07-10T23:07:54.626Z,2.20
2018-07-10T23:10:23.086Z,1.83
2018-07-10T23:12:51.035Z,2.20
2018-07-10T23:15:18.755Z,1.70
2018-07-10T23:17:46.496Z,1.77
2018-07-10T23:20:14.256Z,2.03
2018-07-10T23:22:54.536Z,1.53
2018-07-10T23:25:24.206Z,1.90
2018-07-10T23:27:58.853Z,1.90
2018-07-10T23:30:26.879Z,1.93
2018-07-10T23:32:55.110Z,1.63
2018-07-10T23:35:23.942Z,2.00
2018-07-10T23:37:55.341Z,2.10
2018-07-10T23:40:23.107Z,2.03
2018-07-10T23:42:51.755Z,1.80
2018-07-10T23:45:23.529Z,1.90
2018-07-10T23:47:53.060Z,2.20
2018-07-10T23:50:30.158Z,2.07
2018-07-10T23:53:45.470Z,2.27
2018-07-10T23:56:13.362Z,2.03
2018-07-10T23:58:41.107Z,2.30
